createdAt,value
2022-09-02T00:02:01.223Z,53.11
2022-09-02T00:04:32.211Z,53.39
2022-09-02T00:07:02.672Z,53.32
2022-09-02T00:09:33.153Z,53.43
2022-09-02T00:12:03.685Z,53.39
2022-09-02T00:14:38.161Z,53.35
2022-09-02T00:17:08.803Z,53.38
2022-09-02T00:19:39.281Z,53.45
2022-09-02T00:22:09.912Z,53.49
2022-09-02T00:24:40.712Z,53.49
2022-09-02T00:27:11.084Z,53.69
2022-09-02T00:29:41.472Z,53.40
2022-09-02T00:32:11.996Z,53.44
2022-09-02T00:34:42.654Z,53.53
2022-09-02T00:37:14.642Z,53.45
2022-09-02T00:39:45.642Z,53.76
2022-09-02T00:42:18.653Z,53.88
2022-09-02T00:44:49.323Z,53.88
2022-09-02T00:47:19.940Z,54.02
2022-09-02T00:49:55.339Z,54.03
2022-09-02T00:52:31.242Z,53.88
2022-09-02T00:55:06.982Z,53.59
2022-09-02T00:57:52.747Z,53.73
2022-09-02T01:00:34.444Z,53.98
2022-09-02T01:03:08.882Z,53.97
2022-09-02T01:05:45.313Z,53.90
2022-09-02T01:08:21.261Z,54.04
2022-09-02T01:10:52.651Z,54.17
2022-09-02T01:13:26.532Z,54.06
2022-09-02T01:16:23.532Z,53.92
2022-09-02T01:18:58.613Z,54.21
2022-09-02T01:21:29.802Z,54.28
2022-09-02T01:24:01.392Z,54.25
2022-09-02T01:26:34.066Z,53.93
2022-09-02T01:29:04.688Z,54.23
2022-09-02T01:31:35.168Z,54.27
2022-09-02T01:34:07.002Z,54.39
2022-09-02T01:36:41.311Z,53.96
2022-09-02T01:39:14.111Z,54.38
2022-09-02T01:41:44.751Z,54.30
2022-09-02T01:44:16.588Z,54.12
2022-09-02T01:46:47.598Z,54.46
2022-09-02T01:49:20.439Z,54.59
2022-09-02T01:51:51.662Z,54.29
2022-09-02T01:54:22.282Z,54.56
2022-09-02T01:56:53.942Z,54.52
2022-09-02T01:59:26.542Z,54.60
2022-09-02T02:01:57.045Z,54.70
2022-09-02T02:04:28.065Z,54.67
2022-09-02T02:06:59.974Z,54.58
2022-09-02T02:09:30.802Z,54.56
2022-09-02T02:12:01.597Z,54.39
2022-09-02T02:14:33.182Z,54.53
2022-09-02T02:17:03.722Z,54.58
2022-09-02T02:19:34.262Z,54.44
2022-09-02T02:22:05.381Z,54.50
2022-09-02T02:24:37.051Z,54.78
2022-09-02T02:27:08.012Z,54.71
2022-09-02T02:29:38.562Z,54.48
2022-09-02T02:32:09.472Z,54.59
2022-09-02T02:34:40.833Z,54.49
2022-09-02T02:37:12.711Z,54.81
2022-09-02T02:39:44.845Z,54.50
2022-09-02T02:42:17.713Z,54.88
2022-09-02T02:44:51.456Z,54.67
2022-09-02T02:47:24.701Z,54.82
2022-09-02T02:49:55.524Z,54.70
2022-09-02T02:52:26.004Z,54.76
2022-09-02T02:54:56.972Z,54.91
2022-09-02T02:57:27.463Z,54.66
2022-09-02T02:59:58.492Z,54.91
2022-09-02T03:02:33.724Z,54.65
2022-09-02T03:05:08.149Z,54.80
2022-09-02T03:07:41.194Z,55.10
2022-09-02T03:10:13.521Z,54.84
2022-09-02T03:12:45.322Z,54.68
2022-09-02T03:15:18.781Z,54.93
2022-09-02T03:17:50.871Z,54.66
2022-09-02T03:20:23.208Z,54.78
2022-09-02T03:22:59.946Z,55.08
2022-09-02T03:25:35.997Z,54.69
2022-09-02T03:28:12.350Z,54.93
2022-09-02T03:30:43.901Z,54.60
2022-09-02T03:33:14.754Z,54.43
2022-09-02T03:35:46.899Z,54.79
2022-09-02T03:38:18.734Z,54.77
2022-09-02T03:40:51.884Z,54.92
2022-09-02T03:43:23.072Z,54.89
2022-09-02T03:45:54.271Z,54.65
2022-09-02T03:48:25.050Z,54.66
2022-09-02T03:50:56.479Z,54.75
2022-09-02T03:53:27.264Z,55.10
2022-09-02T03:56:05.701Z,54.97
2022-09-02T03:58:37.543Z,55.05
2022-09-02T04:01:09.110Z,54.70
2022-09-02T04:03:39.810Z,54.75
2022-09-02T04:06:15.945Z,54.94
2022-09-02T04:08:47.690Z,54.91
2022-09-02T04:11:23.551Z,54.91
2022-09-02T04:13:55.710Z,54.92
2022-09-02T04:16:29.360Z,54.86
2022-09-02T04:19:07.014Z,55.00
2022-09-02T04:21:40.228Z,55.03
2022-09-02T04:24:13.132Z,54.71
2022-09-02T04:26:47.434Z,54.85
2022-09-02T04:29:21.422Z,54.88
2022-09-02T04:31:53.352Z,54.94
2022-09-02T04:34:25.241Z,55.09
2022-09-02T04:36:57.273Z,55.39
2022-09-02T04:39:27.860Z,55.16
2022-09-02T04:41:58.341Z,55.13
2022-09-02T04:44:29.101Z,54.89
2022-09-02T04:47:00.002Z,55.01
2022-09-02T04:49:33.172Z,55.32
2022-09-02T04:52:03.902Z,55.51
2022-09-02T04:54:36.073Z,55.53
2022-09-02T04:57:08.413Z,55.59
2022-09-02T04:59:39.401Z,55.62
2022-09-02T05:02:13.013Z,55.69
2022-09-02T05:04:43.991Z,55.55
2022-09-02T05:07:21.071Z,55.81
2022-09-02T05:09:52.091Z,55.83
2022-09-02T05:12:23.011Z,55.97
2022-09-02T05:14:59.872Z,55.81
2022-09-02T05:17:32.309Z,55.88
2022-09-02T05:20:06.124Z,56.03
2022-09-02T05:22:38.480Z,56.35
2022-09-02T05:25:10.067Z,56.17
2022-09-02T05:27:40.853Z,56.13
2022-09-02T05:30:11.730Z,56.05
2022-09-02T05:32:42.753Z,56.39
2022-09-02T05:35:13.592Z,56.31
2022-09-02T05:37:46.271Z,56.56
2022-09-02T05:40:17.091Z,56.39
2022-09-02T05:42:53.651Z,56.80
2022-09-02T05:45:28.079Z,56.53
2022-09-02T05:47:58.579Z,56.46
2022-09-02T05:50:31.896Z,56.82
2022-09-02T05:53:03.201Z,56.88
2022-09-02T05:55:33.852Z,56.84
2022-09-02T05:58:06.008Z,56.65
2022-09-02T06:00:38.334Z,56.61
2022-09-02T06:03:11.217Z,56.90
2022-09-02T06:05:43.321Z,57.03
2022-09-02T06:08:25.222Z,56.94
2022-09-02T06:10:55.940Z,56.69
2022-09-02T06:13:32.441Z,56.80
2022-09-02T06:16:03.395Z,56.99
2022-09-02T06:18:36.476Z,56.90
2022-09-02T06:21:08.996Z,57.06
2022-09-02T06:24:01.073Z,56.95
2022-09-02T06:26:32.664Z,57.13
2022-09-02T06:29:05.017Z,57.20
2022-09-02T06:31:37.063Z,57.28
2022-09-02T06:34:08.300Z,57.48
2022-09-02T06:36:38.992Z,57.65
2022-09-02T06:39:12.532Z,57.67
2022-09-02T06:41:47.242Z,57.79
2022-09-02T06:44:19.398Z,57.74
2022-09-02T06:47:05.722Z,57.87
2022-09-02T06:49:38.174Z,57.94
2022-09-02T06:52:16.171Z,58.11
2022-09-02T06:54:49.516Z,58.32
2022-09-02T06:57:20.243Z,58.37
2022-09-02T06:59:53.024Z,58.53
2022-09-02T07:03:08.883Z,58.44
2022-09-02T07:05:39.646Z,58.54
2022-09-02T07:08:10.717Z,58.62
2022-09-02T07:10:43.061Z,58.58
2022-09-02T07:13:42.885Z,58.75
2022-09-02T07:16:15.661Z,58.93
2022-09-02T07:18:58.106Z,58.77
2022-09-02T07:21:33.816Z,59.04
2022-09-02T07:24:05.192Z,59.17
2022-09-02T07:26:47.554Z,59.22
2022-09-02T07:29:25.852Z,59.25
2022-09-02T07:31:57.616Z,59.42
2022-09-02T07:34:35.938Z,59.20
2022-09-02T07:37:11.841Z,59.22
2022-09-02T07:39:44.459Z,59.21
2022-09-02T07:42:16.236Z,59.07
2022-09-02T07:44:47.196Z,59.10
2022-09-02T07:47:18.851Z,59.01
2022-09-02T07:52:41.022Z,58.61
2022-09-02T07:55:15.642Z,58.38
2022-09-02T07:57:48.243Z,58.07
2022-09-02T08:00:21.584Z,57.79
2022-09-02T08:03:15.823Z,57.76
2022-09-02T08:06:33.727Z,57.71
2022-09-02T08:09:28.299Z,57.42
2022-09-02T08:11:59.537Z,57.17
2022-09-02T08:14:31.393Z,57.25
2022-09-02T08:17:02.937Z,57.11
2022-09-02T08:19:34.328Z,56.64
2022-09-02T08:22:07.429Z,56.75
2022-09-02T08:24:38.397Z,56.60
2022-09-02T08:27:08.945Z,56.57
2022-09-02T08:29:40.844Z,56.22
2022-09-02T08:32:11.609Z,56.22
2022-09-02T08:34:42.356Z,56.53
2022-09-02T08:37:13.195Z,56.26
2022-09-02T08:39:43.688Z,55.91
2022-09-02T08:42:22.589Z,55.87
2022-09-02T08:45:01.683Z,56.10
2022-09-02T08:47:35.383Z,56.04
2022-09-02T08:50:15.213Z,55.78
2022-09-02T08:53:30.695Z,55.86
2022-09-02T08:56:03.160Z,55.75
2022-09-02T08:58:47.524Z,55.58
2022-09-02T09:01:32.109Z,55.20
2022-09-02T09:04:19.084Z,55.21
2022-09-02T09:10:22.494Z,54.89
2022-09-02T09:13:30.283Z,54.88
2022-09-02T09:16:16.514Z,54.93
2022-09-02T09:18:54.463Z,54.72
2022-09-02T09:24:06.138Z,54.39
2022-09-02T09:26:41.688Z,54.56
2022-09-02T09:29:13.322Z,54.48
2022-09-02T09:31:48.370Z,54.11
2022-09-02T09:34:18.945Z,53.80
2022-09-02T09:36:56.324Z,53.36
2022-09-02T09:39:32.536Z,53.23
2022-09-02T09:42:15.829Z,53.37
2022-09-02T09:44:48.719Z,53.12
2022-09-02T09:47:23.341Z,53.13
2022-09-02T09:49:56.766Z,53.34
2022-09-02T09:52:29.719Z,53.21
2022-09-02T09:55:22.748Z,53.03
2022-09-02T09:57:55.442Z,52.59
2022-09-02T10:00:43.851Z,52.71
2022-09-02T10:03:57.036Z,52.55
2022-09-02T10:06:49.490Z,52.34
2022-09-02T10:09:20.312Z,52.26
2022-09-02T10:11:59.799Z,52.27
2022-09-02T10:14:55.207Z,51.97
2022-09-02T10:17:43.245Z,51.93
2022-09-02T10:20:48.479Z,51.65
2022-09-02T10:23:46.195Z,51.55
2022-09-02T10:26:44.494Z,51.46
2022-09-02T10:29:40.013Z,51.59
2022-09-02T10:32:39.064Z,51.59
2022-09-02T10:35:26.814Z,51.69
2022-09-02T10:38:31.732Z,51.18
2022-09-02T10:41:09.711Z,51.30
2022-09-02T10:44:20.529Z,51.10
2022-09-02T10:47:23.247Z,50.98
2022-09-02T10:50:30.070Z,50.89
2022-09-02T10:53:19.796Z,50.72
2022-09-02T10:56:05.747Z,50.75
2022-09-02T10:58:50.833Z,50.66
2022-09-02T11:01:30.867Z,50.47
2022-09-02T11:04:21.076Z,50.33
2022-09-02T11:07:03.215Z,50.37
2022-09-02T11:09:46.887Z,50.10
2022-09-02T11:12:28.975Z,50.35
2022-09-02T11:15:12.136Z,50.11
2022-09-02T11:17:45.855Z,50.18
2022-09-02T11:20:45.410Z,50.33
2022-09-02T11:23:38.342Z,49.93
2022-09-02T11:26:26.560Z,50.32
2022-09-02T11:29:25.518Z,49.88
2022-09-02T11:32:14.852Z,49.89
2022-09-02T11:34:52.738Z,49.23
2022-09-02T11:37:42.204Z,49.28
2022-09-02T11:40:39.183Z,49.32
2022-09-02T11:43:31.447Z,49.40
2022-09-02T11:46:21.651Z,49.57
2022-09-02T11:49:13.638Z,49.89
2022-09-02T11:51:47.301Z,49.83
2022-09-02T11:54:21.385Z,49.60
2022-09-02T11:56:58.504Z,49.47
2022-09-02T11:59:53.511Z,49.56
2022-09-02T12:02:43.700Z,49.01
2022-09-02T12:05:32.831Z,49.00
2022-09-02T12:08:13.667Z,49.15
2022-09-02T12:10:45.687Z,49.48
2022-09-02T12:13:41.503Z,49.30
2022-09-02T12:16:15.943Z,49.27
2022-09-02T12:18:55.945Z,49.19
2022-09-02T12:21:28.545Z,49.00
2022-09-02T12:23:59.318Z,49.03
2022-09-02T12:26:52.839Z,49.30
2022-09-02T12:29:35.320Z,49.01
2022-09-02T12:32:07.530Z,48.91
2022-09-02T12:34:38.177Z,48.90
2022-09-02T12:37:08.578Z,48.96
2022-09-02T12:39:42.655Z,48.64
2022-09-02T12:42:26.585Z,48.74
2022-09-02T12:45:13.957Z,48.53
2022-09-02T12:48:11.718Z,48.57
2022-09-02T12:51:00.594Z,48.40
2022-09-02T12:53:31.825Z,48.55
2022-09-02T12:56:07.352Z,48.39
2022-09-02T12:58:43.380Z,48.37
2022-09-02T13:01:32.460Z,48.44
2022-09-02T13:04:48.208Z,48.64
2022-09-02T13:07:59.115Z,48.26
2022-09-02T13:10:54.088Z,48.32
2022-09-02T13:13:49.047Z,48.17
2022-09-02T13:16:59.291Z,48.09
2022-09-02T13:20:20.801Z,48.74
2022-09-02T13:23:31.353Z,48.54
2022-09-02T13:26:45.874Z,48.65
2022-09-02T13:29:38.070Z,48.61
2022-09-02T13:32:25.139Z,48.75
2022-09-02T13:35:01.902Z,48.27
2022-09-02T13:37:46.295Z,48.54
2022-09-02T13:40:23.598Z,48.40
2022-09-02T13:42:59.732Z,48.54
2022-09-02T13:45:39.878Z,48.36
2022-09-02T13:48:28.579Z,48.45
2022-09-02T13:51:04.767Z,48.46
2022-09-02T13:53:45.586Z,48.20
2022-09-02T13:56:37.598Z,48.37
2022-09-02T13:59:08.256Z,48.40
2022-09-02T14:01:41.216Z,48.50
2022-09-02T14:04:16.061Z,48.52
2022-09-02T14:06:49.483Z,48.66
2022-09-02T14:09:33.628Z,48.35
2022-09-02T14:12:06.888Z,48.57
2022-09-02T14:14:38.158Z,48.42
2022-09-02T14:17:26.603Z,48.41
2022-09-02T14:20:20.879Z,48.59
2022-09-02T14:22:58.199Z,48.48
2022-09-02T14:25:34.219Z,48.42
2022-09-02T14:28:11.037Z,48.35
2022-09-02T14:30:43.474Z,48.32
2022-09-02T14:33:38.248Z,48.16
2022-09-02T14:36:18.217Z,48.40
2022-09-02T14:38:49.021Z,48.27
2022-09-02T14:41:19.482Z,48.17
2022-09-02T14:43:53.745Z,48.36
2022-09-02T14:46:30.044Z,48.41
2022-09-02T14:49:10.647Z,48.28
2022-09-02T14:51:53.118Z,48.30
2022-09-02T14:54:52.524Z,48.30
2022-09-02T14:57:23.040Z,48.33
2022-09-02T14:59:55.116Z,48.20
2022-09-02T15:02:30.779Z,48.24
2022-09-02T15:05:04.748Z,48.16
2022-09-02T15:07:38.751Z,47.99
2022-09-02T15:10:10.978Z,48.03
2022-09-02T15:12:48.967Z,48.09
2022-09-02T15:15:20.368Z,47.99
2022-09-02T15:17:51.017Z,47.94
2022-09-02T15:20:22.971Z,47.77
2022-09-02T15:22:55.706Z,48.12
2022-09-02T15:25:27.256Z,47.93
2022-09-02T15:28:00.118Z,48.06
2022-09-02T15:30:31.646Z,48.23
2022-09-02T15:33:05.985Z,47.96
2022-09-02T15:35:37.086Z,47.95
2022-09-02T15:38:09.129Z,48.00
2022-09-02T15:40:39.761Z,47.83
2022-09-02T15:43:10.458Z,47.86
2022-09-02T15:45:48.204Z,47.93
2022-09-02T15:48:18.507Z,48.45
2022-09-02T15:50:49.052Z,48.36
2022-09-02T15:53:24.704Z,47.87
2022-09-02T15:55:55.039Z,47.80
2022-09-02T15:58:25.434Z,48.02
2022-09-02T16:00:58.676Z,48.09
2022-09-02T16:03:31.504Z,47.87
2022-09-02T16:06:06.844Z,47.81
2022-09-02T16:08:37.495Z,47.89
2022-09-02T16:11:10.220Z,48.03
2022-09-02T16:13:41.042Z,48.17
2022-09-02T16:16:13.966Z,48.26
2022-09-02T16:18:45.267Z,48.19
2022-09-02T16:21:15.746Z,48.27
2022-09-02T16:23:46.316Z,48.66
2022-09-02T16:26:38.688Z,48.53
2022-09-02T16:29:10.916Z,48.71
2022-09-02T16:31:42.981Z,48.70
2022-09-02T16:34:16.566Z,48.64
2022-09-02T16:36:51.030Z,48.66
2022-09-02T16:39:21.705Z,48.76
2022-09-02T16:41:54.692Z,48.70
2022-09-02T16:44:27.168Z,49.01
2022-09-02T16:46:57.766Z,48.85
2022-09-02T16:49:28.039Z,48.99
2022-09-02T16:51:58.751Z,49.07
2022-09-02T16:54:31.885Z,49.04
2022-09-02T16:57:06.638Z,49.13
2022-09-02T16:59:37.440Z,49.04
2022-09-02T17:02:07.967Z,49.10
2022-09-02T17:04:41.832Z,49.10
2022-09-02T17:07:12.189Z,49.22
2022-09-02T17:09:45.497Z,49.23
2022-09-02T17:12:19.011Z,49.17
2022-09-02T17:14:49.587Z,49.45
2022-09-02T17:17:20.000Z,49.57
2022-09-02T17:19:50.655Z,49.42
2022-09-02T17:22:21.328Z,49.35
2022-09-02T17:24:53.789Z,49.44
2022-09-02T17:27:24.532Z,49.48
2022-09-02T17:29:55.271Z,49.48
2022-09-02T17:32:26.446Z,49.51
2022-09-02T17:34:57.086Z,49.52
2022-09-02T17:37:28.249Z,49.72
2022-09-02T17:39:58.690Z,49.48
2022-09-02T17:42:28.979Z,49.55
2022-09-02T17:44:59.732Z,49.53
2022-09-02T17:47:32.266Z,49.65
2022-09-02T17:50:02.804Z,49.62
2022-09-02T17:52:33.308Z,49.55
2022-09-02T17:55:04.148Z,49.67
2022-09-02T17:57:51.820Z,49.76
2022-09-02T18:00:23.958Z,49.83
2022-09-02T18:03:16.111Z,49.76
2022-09-02T18:05:57.019Z,49.82
2022-09-02T18:08:39.786Z,49.81
2022-09-02T18:11:10.410Z,49.89
2022-09-02T18:14:02.037Z,49.94
2022-09-02T18:16:51.621Z,49.77
2022-09-02T18:19:22.208Z,49.87
2022-09-02T18:21:56.168Z,49.97
2022-09-02T18:24:59.465Z,49.94
2022-09-02T18:27:41.650Z,49.92
2022-09-02T18:30:30.254Z,50.04
2022-09-02T18:33:06.934Z,49.99
2022-09-02T18:35:50.300Z,49.95
2022-09-02T18:38:41.428Z,49.75
2022-09-02T18:41:22.578Z,49.93
2022-09-02T18:44:10.268Z,49.95
2022-09-02T18:46:49.367Z,49.91
2022-09-02T18:49:22.070Z,50.10
2022-09-02T18:51:57.991Z,50.10
2022-09-02T18:54:35.990Z,50.10
2022-09-02T18:57:10.635Z,50.15
2022-09-02T18:59:43.771Z,50.09
2022-09-02T19:02:23.004Z,50.08
2022-09-02T19:04:53.752Z,50.16
2022-09-02T19:07:42.066Z,50.26
2022-09-02T19:10:14.689Z,50.16
2022-09-02T19:12:54.794Z,50.22
2022-09-02T19:15:26.848Z,50.27
2022-09-02T19:17:57.649Z,50.28
2022-09-02T19:20:28.973Z,50.29
2022-09-02T19:23:00.278Z,50.32
2022-09-02T19:25:32.440Z,50.32
2022-09-02T19:28:06.789Z,50.26
2022-09-02T19:30:39.620Z,50.31
2022-09-02T19:33:15.459Z,50.26
2022-09-02T19:35:51.338Z,50.44
2022-09-02T19:38:22.193Z,50.54
2022-09-02T19:40:52.969Z,50.44
2022-09-02T19:43:23.671Z,50.43
2022-09-02T19:45:54.244Z,50.58
2022-09-02T19:48:25.147Z,50.62
2022-09-02T19:50:56.900Z,50.65
2022-09-02T19:53:30.567Z,50.44
2022-09-02T19:56:02.294Z,50.49
2022-09-02T19:58:32.918Z,50.55
2022-09-02T20:01:04.871Z,50.58
2022-09-02T20:03:36.132Z,50.62
2022-09-02T20:06:06.503Z,50.63
2022-09-02T20:08:36.973Z,50.71
2022-09-02T20:11:08.778Z,50.84
2022-09-02T20:13:41.562Z,50.80
2022-09-02T20:16:29.470Z,50.75
2022-09-02T20:19:00.520Z,50.82
2022-09-02T20:21:42.700Z,50.84
2022-09-02T20:24:21.048Z,50.79
2022-09-02T20:27:05.808Z,51.02
2022-09-02T20:29:39.449Z,50.94
2022-09-02T20:32:48.017Z,50.98
2022-09-02T20:35:40.257Z,51.02
2022-09-02T20:38:48.707Z,51.02
2022-09-02T20:41:41.688Z,51.11
2022-09-02T20:44:34.456Z,51.03
2022-09-02T20:47:31.528Z,51.19
2022-09-02T20:50:31.589Z,51.12
2022-09-02T20:53:27.417Z,51.10
2022-09-02T20:56:12.346Z,51.11
2022-09-02T20:59:40.957Z,51.30
2022-09-02T21:02:18.872Z,51.21
2022-09-02T21:04:56.238Z,51.29
2022-09-02T21:07:33.104Z,51.37
2022-09-02T21:10:11.128Z,51.41
2022-09-02T21:13:26.329Z,51.27
2022-09-02T21:16:12.318Z,51.41
2022-09-02T21:19:19.637Z,51.51
2022-09-02T21:21:58.971Z,51.60
2022-09-02T21:24:47.566Z,51.58
2022-09-02T21:27:29.658Z,51.48
2022-09-02T21:30:10.330Z,51.52
2022-09-02T21:33:02.233Z,51.42
2022-09-02T21:35:49.603Z,51.43
2022-09-02T21:38:38.724Z,51.50
2022-09-02T21:41:39.389Z,51.46
2022-09-02T21:44:51.616Z,51.55
2022-09-02T21:47:33.356Z,51.53
2022-09-02T21:50:22.014Z,51.45
2022-09-02T21:53:19.688Z,51.60
2022-09-02T21:56:03.798Z,51.55
2022-09-02T21:58:55.734Z,51.48
2022-09-02T22:01:44.919Z,51.67
2022-09-02T22:04:33.869Z,51.69
2022-09-02T22:07:20.551Z,51.61
2022-09-02T22:10:14.310Z,51.50
2022-09-02T22:12:52.419Z,51.58
2022-09-02T22:15:37.559Z,51.62
2022-09-02T22:18:16.044Z,51.73
2022-09-02T22:20:51.570Z,51.81
2022-09-02T22:23:26.988Z,51.64
2022-09-02T22:26:04.379Z,51.57
2022-09-02T22:28:44.808Z,51.62
2022-09-02T22:31:19.931Z,51.73
2022-09-02T22:33:56.640Z,51.92
2022-09-02T22:36:50.777Z,51.81
2022-09-02T22:39:29.238Z,51.86
2022-09-02T22:42:22.090Z,52.05
2022-09-02T22:45:26.339Z,51.98
2022-09-02T22:48:23.499Z,52.03
2022-09-02T22:51:19.158Z,52.25
2022-09-02T22:53:52.367Z,51.99
2022-09-02T22:56:40.414Z,52.02
2022-09-02T22:59:49.219Z,52.06
2022-09-02T23:02:36.648Z,52.08
2022-09-02T23:05:07.069Z,52.21
2022-09-02T23:07:40.127Z,52.05
2022-09-02T23:10:24.864Z,52.26
2022-09-02T23:13:14.586Z,52.08
2022-09-02T23:16:14.652Z,52.22
2022-09-02T23:18:54.507Z,52.09
2022-09-02T23:21:29.486Z,52.35
2022-09-02T23:24:09.749Z,52.23
2022-09-02T23:26:55.318Z,52.28
2022-09-02T23:29:28.556Z,52.35
2022-09-02T23:32:01.626Z,52.62
2022-09-02T23:35:02.856Z,52.44
2022-09-02T23:37:44.368Z,52.54
2022-09-02T23:40:33.329Z,52.75
2022-09-02T23:43:04.827Z,52.72
2022-09-02T23:45:37.811Z,52.57
2022-09-02T23:48:44.116Z,52.72
2022-09-02T23:51:20.459Z,52.73
2022-09-02T23:54:52.709Z,52.71
2022-09-02T23:57:55.044Z,52.71
